Time;durP1;ratioP1;P1;durP2;ratioP2;P2;SDS_P1;SDS_P2;PMS_P1;PMS_P2;Temp;Humidity;BMP_temperature;BMP_pressure;BME280_temperature;BME280_humidity;BME280_pressure;Samples;Min_cycle;Max_cycle;Signal;HPM_P1;HPM_P2
2022/11/19 00:02:00;;;;;;;;;;;6.90;83.60;;;-151.14;100.00;62537.16;5092481;28;20224;-80
2022/11/19 00:04:28;;;;;;;;;;;6.90;83.60;;;-151.14;100.00;62537.16;5092193;28;19927;-80
2022/11/19 00:06:56;;;;;;;;;;;6.90;83.60;;;-151.14;100.00;62537.16;5077185;28;19920;-80
2022/11/19 00:09:25;;;;;;;;;;;6.90;83.70;;;-151.14;100.00;62537.16;5094743;28;19926;-80
2022/11/19 00:14:39;;;;;;;;;;;6.90;83.70;;;-151.14;100.00;62537.16;5094261;28;20127;-80
2022/11/19 00:17:07;;;;;;;;;;;6.90;83.60;;;-151.14;100.00;62537.16;5077718;28;20123;-80
2022/11/19 00:19:35;;;;;;;;;;;6.90;83.70;;;-151.14;100.00;62537.16;5077647;28;19927;-80
2022/11/19 00:22:02;;;;;;;;;;;6.90;83.70;;;-151.14;100.00;62537.16;5094409;28;19920;-80
2022/11/19 00:24:32;;;;;;;;;;;6.90;83.80;;;-151.14;100.00;62537.16;5094222;28;19926;-80
2022/11/19 00:27:00;;;;;;;;;;;6.90;83.70;;;-151.14;100.00;62537.16;5093999;28;19926;-80
2022/11/19 00:29:28;;;;;;;;;;;6.90;83.70;;;-151.14;100.00;62537.16;5077482;28;20092;-80
2022/11/19 00:31:55;;;;;;;;;;;6.90;83.70;;;-151.14;100.00;62537.16;5076790;28;19920;-80
2022/11/19 00:34:23;;;;;;;;;;;6.90;83.70;;;-151.14;100.00;62537.16;5111932;28;20216;-80
2022/11/19 00:36:51;;;;;;;;;;;6.90;83.70;;;-151.14;100.00;62537.16;5093940;28;19926;-80
2022/11/19 00:39:19;;;;;;;;;;;6.90;83.80;;;-151.14;100.00;62537.16;5112209;28;19920;-80
2022/11/19 00:41:48;;;;;;;;;;;6.90;83.70;;;-151.14;100.00;62537.16;5077405;28;19920;-80
2022/11/19 00:44:16;;;;;;;;;;;6.90;83.70;;;-151.14;100.00;62537.16;5093691;28;19920;-80
2022/11/19 00:46:44;;;;;;;;;;;6.90;83.80;;;-151.14;100.00;62537.16;5093898;28;20208;-80
2022/11/19 00:49:12;;;;;;;;;;;6.90;83.70;;;-151.14;100.00;62537.16;5093908;28;19920;-80
2022/11/19 00:51:40;;;;;;;;;;;6.90;83.70;;;-151.14;100.00;62537.16;5077202;28;19919;-80
2022/11/19 00:54:08;;;;;;;;;;;6.90;83.70;;;-151.14;100.00;62537.16;5093651;28;19926;-80
2022/11/19 00:56:36;;;;;;;;;;;6.90;83.70;;;-151.14;100.00;62537.16;5076736;28;19920;-80
2022/11/19 00:59:05;;;;;;;;;;;6.90;83.70;;;-151.14;100.00;62537.16;5077001;28;19920;-80
2022/11/19 01:01:33;;;;;;;;;;;6.90;83.70;;;-151.14;100.00;62537.16;5093812;28;19926;-80
2022/11/19 01:04:01;;;;;;;;;;;6.90;83.70;;;-151.14;100.00;62537.16;5076709;28;19927;-80
2022/11/19 01:06:29;;;;;;;;;;;6.90;83.70;;;-151.14;100.00;62537.16;5076674;28;19920;-80
2022/11/19 01:08:57;;;;;;;;;;;6.90;83.70;;;-151.14;100.00;62537.16;5093716;28;20089;-80
2022/11/19 01:11:26;;;;;;;;;;;6.90;83.70;;;-151.14;100.00;62537.16;5093709;28;20123;-80
2022/11/19 01:13:54;;;;;;;;;;;6.90;83.70;;;-151.14;100.00;62537.16;5093323;28;19924;-80
2022/11/19 01:16:24;;;;;;;;;;;6.90;83.70;;;-151.14;100.00;62537.16;5093318;28;19926;-80
2022/11/19 01:18:52;;;;;;;;;;;6.90;83.70;;;-151.14;100.00;62537.16;5110587;28;19926;-80
2022/11/19 01:21:20;;;;;;;;;;;6.90;83.70;;;-151.14;100.00;62537.16;5093525;28;19920;-80
2022/11/19 01:23:48;;;;;;;;;;;6.90;83.80;;;-151.14;100.00;62537.16;5076951;28;19920;-80
2022/11/19 01:26:16;;;;;;;;;;;6.90;83.80;;;-151.14;100.00;62537.16;5110179;28;19942;-80
2022/11/19 01:28:44;;;;;;;;;;;6.90;83.80;;;-151.14;100.00;62537.16;5076234;28;19920;-80
2022/11/19 01:31:13;;;;;;;;;;;6.90;83.80;;;-151.14;100.00;62537.16;5111572;28;19934;-80
2022/11/19 01:33:43;;;;;;;;;;;6.90;83.70;;;-151.14;100.00;62537.16;5076452;28;20233;-80
2022/11/19 01:36:12;;;;;;;;;;;6.90;83.70;;;-151.14;100.00;62537.16;5076222;28;19926;-80
2022/11/19 01:38:39;;;;;;;;;;;6.90;83.70;;;-151.14;100.00;62537.16;5093276;28;19920;-80
2022/11/19 01:41:08;;;;;;;;;;;6.90;83.70;;;-151.14;100.00;62537.16;5110349;28;19920;-80
2022/11/19 01:43:40;;;;;;;;;;;6.90;83.80;;;-151.14;100.00;62537.16;5078588;28;19926;-80
2022/11/19 01:46:08;;;;;;;;;;;6.90;83.70;;;-151.14;100.00;62537.16;5096349;28;19927;-80
2022/11/19 01:48:37;;;;;;;;;;;6.90;83.80;;;-151.14;100.00;62537.16;5080012;28;19920;-80
2022/11/19 01:51:09;;;;;;;;;;;6.90;83.70;;;-151.14;100.00;62537.16;5096788;28;19920;-80
2022/11/19 01:53:37;;;;;;;;;;;6.90;83.60;;;-151.14;100.00;62537.16;5096459;28;19920;-80
2022/11/19 01:56:06;;;;;;;;;;;6.90;83.60;;;-151.14;100.00;62537.16;5114468;28;19920;-80
2022/11/19 01:58:35;;;;;;;;;;;6.90;83.60;;;-151.14;100.00;62537.16;5079740;28;19919;-80
2022/11/19 02:01:03;;;;;;;;;;;6.90;83.60;;;-151.14;100.00;62537.16;5079784;28;20302;-80
2022/11/19 02:03:31;;;;;;;;;;;6.90;84.50;;;-151.14;100.00;62537.16;5096558;28;20228;-80
2022/11/19 02:05:59;;;;;;;;;;;6.90;83.60;;;-151.14;100.00;62537.16;5079366;28;19920;-80
2022/11/19 02:08:37;;;;;;;;;;;6.90;83.60;;;-151.14;100.00;62537.16;5079593;28;19919;-80
2022/11/19 02:11:26;;;;;;;;;;;6.90;83.60;;;-151.14;100.00;62537.16;5076176;28;19920;-80
2022/11/19 02:13:58;;;;;;;;;;;6.90;83.60;;;-151.14;100.00;62537.16;5059144;28;19942;-80
2022/11/19 02:16:27;;;;;;;;;;;6.90;83.60;;;-151.14;100.00;62537.16;5075770;28;19920;-80
2022/11/19 02:18:56;;;;;;;;;;;6.90;83.60;;;-151.14;100.00;62537.16;5076180;28;20204;-80
2022/11/19 02:21:30;;;;;;;;;;;6.90;83.60;;;-151.14;100.00;62537.16;5059402;28;19926;-80
2022/11/19 02:24:25;;;;;;;;;;;6.90;83.60;;;-151.14;100.00;62537.16;5059197;28;19920;-80
2022/11/19 02:27:28;;;;;;;;;;;6.90;83.60;;;-151.14;100.00;62537.16;5059036;28;19920;-80
2022/11/19 02:30:16;;;;;;;;;;;6.90;83.50;;;-151.14;100.00;62537.16;5003711;28;19926;-80
2022/11/19 02:32:57;;;;;;;;;;;6.90;83.60;;;-151.14;100.00;62537.16;5093178;28;20409;-81
2022/11/19 02:35:35;;;;;;;;;;;6.90;83.50;;;-151.14;100.00;62537.16;5058720;28;19934;-80
2022/11/19 02:38:05;;;;;;;;;;;6.90;83.60;;;-151.14;100.00;62537.16;5059060;28;19942;-81
2022/11/19 02:40:35;;;;;;;;;;;6.90;83.60;;;-151.14;100.00;62537.16;5075824;28;19927;-81
2022/11/19 02:43:07;;;;;;;;;;;7.00;83.50;;;-151.14;100.00;62537.16;5075922;28;19921;-81
2022/11/19 02:45:38;;;;;;;;;;;6.90;83.50;;;-151.14;100.00;62537.16;5070365;28;19920;-81
2022/11/19 02:48:08;;;;;;;;;;;6.90;83.50;;;-151.14;100.00;62537.16;5096010;28;20119;-81
2022/11/19 02:50:38;;;;;;;;;;;6.90;83.50;;;-151.14;100.00;62537.16;5079140;28;20124;-81
2022/11/19 02:53:06;;;;;;;;;;;6.90;83.60;;;-151.14;100.00;62537.16;5113684;28;19920;-80
2022/11/19 02:55:34;;;;;;;;;;;6.90;83.50;;;-151.14;100.00;62537.16;5113120;28;19926;-80
2022/11/19 02:58:04;;;;;;;;;;;6.90;83.60;;;-151.14;100.00;62537.16;5112682;28;19920;-80
2022/11/19 03:06:09;;;;;;;;;;;6.90;83.60;;;-151.14;100.00;62537.16;5078620;28;19920;-80
2022/11/19 03:08:36;;;;;;;;;;;6.90;83.60;;;-151.14;100.00;62537.16;5095482;28;19920;-80
2022/11/19 03:11:07;;;;;;;;;;;6.90;83.60;;;-151.14;100.00;62537.16;5078309;28;19934;-80
2022/11/19 03:16:42;;;;;;;;;;;6.90;83.60;;;-151.14;100.00;62537.16;5095038;28;19919;-81
2022/11/19 03:19:17;;;;;;;;;;;6.90;83.50;;;-151.14;100.00;62537.16;5095316;28;19926;-80
2022/11/19 03:21:47;;;;;;;;;;;6.90;83.60;;;-151.14;100.00;62537.16;5078560;28;19928;-80
2022/11/19 03:24:16;;;;;;;;;;;6.90;83.60;;;-151.14;100.00;62537.16;5095119;28;19920;-80
2022/11/19 03:26:45;;;;;;;;;;;6.90;83.40;;;-151.14;100.00;62537.16;5094851;28;19920;-80
2022/11/19 03:29:14;;;;;;;;;;;6.90;83.50;;;-151.14;100.00;62537.16;5078539;28;19926;-81
2022/11/19 03:31:44;;;;;;;;;;;6.90;83.50;;;-151.14;100.00;62537.16;5095061;28;20207;-80
2022/11/19 03:34:15;;;;;;;;;;;6.90;83.40;;;-151.14;100.00;62537.16;5111935;28;20208;-81
2022/11/19 03:36:43;;;;;;;;;;;6.90;83.50;;;-151.14;100.00;62537.16;5077980;28;19920;-81
2022/11/19 03:39:12;;;;;;;;;;;6.90;83.50;;;-151.14;100.00;62537.16;5078072;28;19920;-81
2022/11/19 03:41:40;;;;;;;;;;;7.00;83.50;;;-151.14;100.00;62537.16;5113137;28;20097;-81
2022/11/19 03:44:11;;;;;;;;;;;6.90;83.50;;;-151.14;100.00;62537.16;5094830;28;19927;-81
2022/11/19 03:46:39;;;;;;;;;;;6.90;83.50;;;-151.14;100.00;62537.16;5077656;28;19927;-81
2022/11/19 03:49:07;;;;;;;;;;;6.90;83.50;;;-151.14;100.00;62537.16;5078181;28;19927;-80
2022/11/19 03:51:40;;;;;;;;;;;6.90;83.50;;;-151.14;100.00;62537.16;5078156;28;19919;-81
2022/11/19 03:54:08;;;;;;;;;;;6.90;83.50;;;-151.14;100.00;62537.16;5111515;28;19920;-80
2022/11/19 03:56:37;;;;;;;;;;;6.90;83.50;;;-151.14;100.00;62537.16;5094442;28;19920;-81
2022/11/19 03:59:05;;;;;;;;;;;6.90;83.50;;;-151.14;100.00;62537.16;5094640;28;19919;-81
2022/11/19 04:01:35;;;;;;;;;;;6.90;83.50;;;-151.14;100.00;62537.16;5094997;28;19926;-81
2022/11/19 04:06:50;;;;;;;;;;;6.90;83.50;;;-151.14;100.00;62537.16;5076179;28;19926;-80
2022/11/19 04:09:18;;;;;;;;;;;6.90;83.50;;;-151.14;100.00;62537.16;5077543;28;19919;-81
2022/11/19 04:11:46;;;;;;;;;;;6.90;83.60;;;-151.14;100.00;62537.16;5094775;28;20230;-81
2022/11/19 04:14:14;;;;;;;;;;;6.90;83.50;;;-151.14;100.00;62537.16;5094384;28;19926;-81
2022/11/19 04:16:42;;;;;;;;;;;6.90;83.50;;;-151.14;100.00;62537.16;5094217;28;20119;-81
2022/11/19 04:19:10;;;;;;;;;;;6.90;83.50;;;-151.14;100.00;62537.16;5111406;28;19920;-81
2022/11/19 04:21:38;;;;;;;;;;;7.00;83.50;;;-151.14;100.00;62537.16;5094588;28;20115;-81
2022/11/19 04:24:08;;;;;;;;;;;6.90;83.50;;;-151.14;100.00;62537.16;5094136;28;19969;-81
2022/11/19 04:26:36;;;;;;;;;;;6.90;83.40;;;-151.14;100.00;62537.16;5094166;28;19919;-80
2022/11/19 04:29:04;;;;;;;;;;;6.90;83.40;;;-151.14;100.00;62537.16;5094130;28;19920;-80
2022/11/19 04:31:32;;;;;;;;;;;6.90;83.40;;;-151.14;100.00;62537.16;5112345;28;19927;-81
2022/11/19 04:34:00;;;;;;;;;;;6.90;83.40;;;-151.14;100.00;62537.16;5077245;28;19920;-81
2022/11/19 04:36:28;;;;;;;;;;;6.90;83.40;;;-151.14;100.00;62537.16;5112011;28;19919;-81
2022/11/19 04:38:55;;;;;;;;;;;6.90;83.40;;;-151.14;100.00;62537.16;5077314;28;19985;-81
2022/11/19 04:41:25;;;;;;;;;;;6.90;83.30;;;-151.14;100.00;62537.16;5094106;28;20123;-81
2022/11/19 04:43:53;;;;;;;;;;;6.90;83.30;;;-151.14;100.00;62537.16;5076827;28;20119;-81
2022/11/19 04:46:20;;;;;;;;;;;6.90;83.40;;;-151.14;100.00;62537.16;5093768;28;20127;-81
2022/11/19 04:48:48;;;;;;;;;;;6.90;83.40;;;-151.14;100.00;62537.16;5093927;28;19920;-81
2022/11/19 04:51:16;;;;;;;;;;;6.90;83.40;;;-151.14;100.00;62537.16;5094145;28;19920;-81
2022/11/19 04:53:44;;;;;;;;;;;6.90;83.40;;;-151.14;100.00;62537.16;5076746;28;19920;-81
2022/11/19 04:56:12;;;;;;;;;;;6.90;83.40;;;-151.14;100.00;62537.16;5076851;28;20126;-81
2022/11/19 04:58:42;;;;;;;;;;;6.90;83.40;;;-151.14;100.00;62537.16;5110696;28;19930;-81
2022/11/19 05:01:09;;;;;;;;;;;6.90;83.40;;;-151.14;100.00;62537.16;5093909;28;20131;-81
2022/11/19 05:03:37;;;;;;;;;;;6.90;83.40;;;-151.14;100.00;62537.16;5093736;28;20113;-81
2022/11/19 05:06:06;;;;;;;;;;;6.90;83.40;;;-151.14;100.00;62537.16;5093490;28;20236;-81
2022/11/19 05:08:34;;;;;;;;;;;6.90;83.40;;;-151.14;100.00;62537.16;5093437;28;19927;-81
2022/11/19 05:11:01;;;;;;;;;;;6.90;83.40;;;-151.14;100.00;62537.16;5093927;28;19920;-80
2022/11/19 05:13:29;;;;;;;;;;;6.90;83.40;;;-151.14;100.00;62537.16;5093441;28;19919;-81
2022/11/19 05:15:59;;;;;;;;;;;6.90;83.40;;;-151.14;100.00;62537.16;5093344;28;19920;-80
2022/11/19 05:18:27;;;;;;;;;;;6.90;83.40;;;-151.14;100.00;62537.16;5076440;28;19920;-81
2022/11/19 05:20:54;;;;;;;;;;;6.90;83.40;;;-151.14;100.00;62537.16;5076859;28;20116;-81
2022/11/19 05:23:23;;;;;;;;;;;6.90;83.40;;;-151.14;100.00;62537.16;5086447;28;19920;-81
2022/11/19 05:25:51;;;;;;;;;;;6.90;83.50;;;-151.14;100.00;62537.16;5110261;28;19920;-81
2022/11/19 05:28:18;;;;;;;;;;;6.90;83.50;;;-151.14;100.00;62537.16;5093591;28;19919;-81
2022/11/19 05:30:46;;;;;;;;;;;6.90;83.50;;;-151.14;100.00;62537.16;5111525;28;19920;-81
2022/11/19 05:33:16;;;;;;;;;;;6.90;83.40;;;-151.14;100.00;62537.16;5110287;28;19920;-81
2022/11/19 05:35:44;;;;;;;;;;;6.90;83.40;;;-151.14;100.00;62537.16;5093151;28;19920;-81
2022/11/19 05:38:12;;;;;;;;;;;6.90;83.40;;;-151.14;100.00;62537.16;5093102;28;19920;-81
2022/11/19 05:40:39;;;;;;;;;;;6.90;83.40;;;-151.14;100.00;62537.16;5076590;28;19924;-80
2022/11/19 05:43:07;;;;;;;;;;;6.90;83.40;;;-151.14;100.00;62537.16;5093290;28;19934;-81
2022/11/19 05:45:35;;;;;;;;;;;6.90;83.40;;;-151.14;100.00;62537.16;5092842;28;19920;-81
2022/11/19 05:48:03;;;;;;;;;;;6.90;83.30;;;-151.14;100.00;62537.16;5092804;28;20123;-81
2022/11/19 05:50:33;;;;;;;;;;;6.90;83.40;;;-151.14;100.00;62537.16;5076466;28;19920;-81
2022/11/19 05:53:04;;;;;;;;;;;6.90;83.30;;;-151.14;100.00;62537.16;5111061;28;20136;-80
2022/11/19 05:55:32;;;;;;;;;;;6.90;83.30;;;-151.14;100.00;62537.16;5075763;28;20226;-81
2022/11/19 05:58:00;;;;;;;;;;;6.90;83.50;;;-151.14;100.00;62537.16;5093025;28;19926;-81
2022/11/19 06:00:28;;;;;;;;;;;6.90;83.40;;;-151.14;100.00;62537.16;5110025;28;20115;-80
2022/11/19 06:02:55;;;;;;;;;;;6.90;83.40;;;-151.14;100.00;62537.16;5076505;28;19926;-81
2022/11/19 06:05:23;;;;;;;;;;;6.90;83.40;;;-151.14;100.00;62537.16;5092206;28;19920;-81
2022/11/19 06:07:53;;;;;;;;;;;6.90;83.40;;;-151.14;100.00;62537.16;5092805;28;20205;-81
2022/11/19 06:10:21;;;;;;;;;;;6.90;83.40;;;-151.14;100.00;62537.16;5092774;28;19920;-81
2022/11/19 06:12:49;;;;;;;;;;;6.90;83.50;;;-151.14;100.00;62537.16;5074251;28;19920;-81
2022/11/19 06:15:17;;;;;;;;;;;6.90;83.40;;;-151.14;100.00;62537.16;5055559;28;19920;-81
2022/11/19 06:17:45;;;;;;;;;;;6.90;83.40;;;-151.14;100.00;62537.16;5106555;28;19927;-81
2022/11/19 06:20:12;;;;;;;;;;;6.90;83.40;;;-151.14;100.00;62537.16;5055792;28;19920;-81
2022/11/19 06:22:40;;;;;;;;;;;6.90;83.50;;;-151.14;100.00;62537.16;5072813;28;19932;-81
2022/11/19 06:25:10;;;;;;;;;;;6.90;83.60;;;-151.14;100.00;62537.16;5055434;28;19920;-81
2022/11/19 06:27:38;;;;;;;;;;;6.90;83.60;;;-151.14;100.00;62537.16;5089042;28;19928;-81
2022/11/19 06:30:07;;;;;;;;;;;6.90;83.50;;;-151.14;100.00;62537.16;5076828;28;20215;-81
2022/11/19 06:32:35;;;;;;;;;;;6.90;83.60;;;-151.14;100.00;62537.16;5113273;28;19920;-81
2022/11/19 06:35:03;;;;;;;;;;;6.90;83.50;;;-151.14;100.00;62537.16;5077364;28;19920;-81
2022/11/19 06:37:30;;;;;;;;;;;6.90;83.40;;;-151.14;100.00;62537.16;5093691;28;19920;-81
2022/11/19 06:39:58;;;;;;;;;;;6.90;83.50;;;-151.14;100.00;62537.16;5112864;28;19927;-81
2022/11/19 06:42:36;;;;;;;;;;;6.90;84.30;;;-151.14;100.00;62537.16;5096016;28;19932;-81
2022/11/19 06:45:05;;;;;;;;;;;6.90;83.40;;;-151.14;100.00;62537.16;5108655;28;19920;-81
2022/11/19 06:47:33;;;;;;;;;;;6.90;83.50;;;-151.14;100.00;62537.16;5095927;28;19920;-81
2022/11/19 06:50:01;;;;;;;;;;;6.90;83.50;;;-151.14;100.00;62537.16;5078876;28;19926;-81
2022/11/19 06:52:29;;;;;;;;;;;6.90;83.50;;;-151.14;100.00;62537.16;5095991;28;19926;-81
2022/11/19 06:54:57;;;;;;;;;;;6.90;83.60;;;-151.14;100.00;62537.16;5064286;28;19920;-81
2022/11/19 06:57:25;;;;;;;;;;;7.00;83.60;;;-151.14;100.00;62537.16;5075430;28;19920;-81
2022/11/19 06:59:54;;;;;;;;;;;7.00;83.30;;;-151.14;100.00;62537.16;5078823;28;19926;-81
2022/11/19 07:02:22;;;;;;;;;;;7.00;83.20;;;-151.14;100.00;62537.16;5078937;28;19920;-81
2022/11/19 07:04:50;;;;;;;;;;;7.00;83.20;;;-151.14;100.00;62537.16;5094871;28;19926;-81
2022/11/19 07:07:18;;;;;;;;;;;7.00;83.20;;;-151.14;100.00;62537.16;5095268;28;19920;-81
2022/11/19 07:09:46;;;;;;;;;;;7.00;83.10;;;-151.14;100.00;62537.16;5095424;28;19919;-81
2022/11/19 07:12:14;;;;;;;;;;;7.00;83.20;;;-151.14;100.00;62537.16;5078767;28;19919;-81
2022/11/19 07:14:42;;;;;;;;;;;7.00;83.20;;;-151.14;100.00;62537.16;5078292;28;20211;-81
2022/11/19 07:17:11;;;;;;;;;;;7.00;83.20;;;-151.14;100.00;62537.16;5095177;28;19920;-81
2022/11/19 07:19:39;;;;;;;;;;;7.00;83.20;;;-151.14;100.00;62537.16;5112140;28;20119;-81
2022/11/19 07:22:07;;;;;;;;;;;7.00;83.20;;;-151.14;100.00;62537.16;5095500;28;20204;-81
2022/11/19 07:24:35;;;;;;;;;;;7.00;83.30;;;-151.14;100.00;62537.16;5095132;28;19934;-81
2022/11/19 07:27:03;;;;;;;;;;;7.00;83.30;;;-151.14;100.00;62537.16;5078321;28;19920;-81
2022/11/19 07:29:31;;;;;;;;;;;7.00;83.40;;;-151.14;100.00;62537.16;5112166;28;19920;-81
2022/11/19 07:31:58;;;;;;;;;;;7.00;83.30;;;-151.14;100.00;62537.16;5095250;28;19926;-81
2022/11/19 07:34:28;;;;;;;;;;;7.00;83.30;;;-151.14;100.00;62537.16;5078167;28;19920;-81
2022/11/19 07:36:56;;;;;;;;;;;7.00;83.40;;;-151.14;100.00;62537.16;5094862;28;19926;-81
2022/11/19 07:39:24;;;;;;;;;;;7.00;83.30;;;-151.14;100.00;62537.16;5094995;28;19920;-81
2022/11/19 07:44:41;;;;;;;;;;;7.00;83.40;;;-151.14;100.00;62537.16;5094388;28;19932;-81
2022/11/19 07:47:09;;;;;;;;;;;7.00;83.40;;;-151.14;100.00;62537.16;5094914;28;19919;-80
2022/11/19 07:49:38;;;;;;;;;;;7.00;83.60;;;-151.14;100.00;62537.16;5094545;28;19926;-81
2022/11/19 07:52:06;;;;;;;;;;;7.00;83.40;;;-151.14;100.00;62537.16;5111842;28;19926;-81
2022/11/19 07:54:34;;;;;;;;;;;7.00;83.50;;;-151.14;100.00;62537.16;5094817;28;19919;-81
2022/11/19 07:57:02;;;;;;;;;;;7.00;83.40;;;-151.14;100.00;62537.16;5112614;28;20118;-81
2022/11/19 07:59:30;;;;;;;;;;;7.00;83.40;;;-151.14;100.00;62537.16;5077949;28;19926;-81
2022/11/19 08:01:58;;;;;;;;;;;7.00;83.30;;;-151.14;100.00;62537.16;5094915;28;19926;-81
2022/11/19 08:04:27;;;;;;;;;;;7.00;83.40;;;-151.14;100.00;62537.16;5094370;28;19920;-81
2022/11/19 08:06:56;;;;;;;;;;;7.00;83.40;;;-151.14;100.00;62537.16;5057471;28;19926;-81
2022/11/19 08:09:24;;;;;;;;;;;7.00;83.40;;;-151.14;100.00;62537.16;5092257;28;19920;-81
2022/11/19 08:11:52;;;;;;;;;;;7.00;83.40;;;-151.14;100.00;62537.16;5073815;28;20242;-81
2022/11/19 08:14:20;;;;;;;;;;;7.00;83.40;;;-151.14;100.00;62537.16;5074045;28;19921;-81
2022/11/19 08:19:33;;;;;;;;;;;7.00;83.30;;;-151.14;100.00;62537.16;5057227;28;20180;-81
2022/11/19 08:22:02;;;;;;;;;;;7.00;83.40;;;-151.14;100.00;62537.16;5057627;28;19927;-81
2022/11/19 08:24:30;;;;;;;;;;;7.00;83.40;;;-151.14;100.00;62537.16;5073965;28;19934;-81
2022/11/19 08:26:58;;;;;;;;;;;7.00;83.40;;;-151.14;100.00;62537.16;5057210;28;20208;-83
2022/11/19 08:29:26;;;;;;;;;;;7.00;83.40;;;-151.14;100.00;62537.16;5057205;28;19927;-83
2022/11/19 08:31:54;;;;;;;;;;;7.00;83.20;;;-151.14;100.00;62537.16;5074306;28;19942;-83
2022/11/19 08:34:22;;;;;;;;;;;7.00;83.20;;;-151.14;100.00;62537.16;5057083;28;19920;-83
2022/11/19 08:36:50;;;;;;;;;;;7.00;83.20;;;-151.14;100.00;62537.16;5089330;28;19920;-83
2022/11/19 08:39:19;;;;;;;;;;;7.00;83.20;;;-151.14;100.00;62537.16;5093809;28;19920;-83
2022/11/19 08:44:32;;;;;;;;;;;7.00;83.10;;;-151.14;100.00;62537.16;5077178;28;19920;-83
2022/11/19 08:47:00;;;;;;;;;;;7.00;83.20;;;-151.14;100.00;62537.16;5077052;28;19920;-83
2022/11/19 08:49:28;;;;;;;;;;;7.00;83.20;;;-151.14;100.00;62537.16;5093815;28;19926;-83
2022/11/19 08:51:57;;;;;;;;;;;7.00;83.20;;;-151.14;100.00;62537.16;5096741;28;19920;-83
2022/11/19 08:54:26;;;;;;;;;;;7.00;83.20;;;-151.14;100.00;62537.16;5091359;28;19920;-83
2022/11/19 08:56:54;;;;;;;;;;;7.00;83.20;;;-151.14;100.00;62537.16;5073631;28;20204;-83
2022/11/19 08:59:22;;;;;;;;;;;7.10;83.30;;;-151.14;100.00;62537.16;5056899;28;19928;-83
2022/11/19 09:01:50;;;;;;;;;;;7.10;83.30;;;-151.14;100.00;62537.16;5057095;28;19920;-83
2022/11/19 09:04:18;;;;;;;;;;;7.10;83.40;;;-151.14;100.00;62537.16;5073167;28;19929;-83
2022/11/19 09:06:46;;;;;;;;;;;7.10;83.40;;;-151.14;100.00;62537.16;5073063;28;19927;-83
2022/11/19 09:09:14;;;;;;;;;;;7.10;83.30;;;-151.14;100.00;62537.16;5073567;28;20222;-83
2022/11/19 09:11:43;;;;;;;;;;;7.10;83.30;;;-151.14;100.00;62537.16;5056921;28;19930;-83
2022/11/19 09:14:11;;;;;;;;;;;7.10;83.20;;;-151.14;100.00;62537.16;5089984;28;19920;-83
2022/11/19 09:16:39;;;;;;;;;;;7.10;83.20;;;-151.14;100.00;62537.16;5073221;28;19927;-83
2022/11/19 09:19:07;;;;;;;;;;;7.10;83.20;;;-151.14;100.00;62537.16;5090076;28;19927;-83
2022/11/19 09:21:35;;;;;;;;;;;7.10;83.20;;;-151.14;100.00;62537.16;5056742;28;19920;-83
2022/11/19 09:24:03;;;;;;;;;;;7.10;83.20;;;-151.14;100.00;62537.16;5073269;28;19920;-83
2022/11/19 09:26:31;;;;;;;;;;;7.10;83.20;;;-151.14;100.00;62537.16;5056284;28;19921;-83
2022/11/19 09:29:00;;;;;;;;;;;7.10;83.10;;;-151.14;100.00;62537.16;5107013;28;20108;-83
2022/11/19 09:31:28;;;;;;;;;;;7.10;83.10;;;-151.14;100.00;62537.16;5091058;28;20212;-83
2022/11/19 09:33:56;;;;;;;;;;;7.10;83.10;;;-151.14;100.00;62537.16;5090872;28;20216;-83
2022/11/19 09:36:24;;;;;;;;;;;7.10;83.20;;;-151.14;100.00;62537.16;5106636;28;19920;-83
2022/11/19 09:38:56;;;;;;;;;;;7.10;83.20;;;-151.14;100.00;62537.16;5107024;28;19920;-83
2022/11/19 09:41:43;;;;;;;;;;;7.10;83.20;;;-151.14;100.00;62537.16;5089763;28;19926;-83
2022/11/19 09:44:25;;;;;;;;;;;7.10;83.20;;;-151.14;100.00;62537.16;5072839;28;19926;-83
2022/11/19 09:46:56;;;;;;;;;;;7.10;83.20;;;-151.14;100.00;62537.16;5090734;28;19927;-83
2022/11/19 09:49:27;;;;;;;;;;;7.10;83.20;;;-151.14;100.00;62537.16;5089653;28;20116;-83
2022/11/19 09:51:57;;;;;;;;;;;7.10;83.20;;;-151.14;100.00;62537.16;5073054;28;19921;-83
2022/11/19 09:54:25;;;;;;;;;;;7.10;83.20;;;-151.14;100.00;62537.16;5090787;28;19920;-83
2022/11/19 09:56:54;;;;;;;;;;;7.10;83.20;;;-151.14;100.00;62537.16;5055879;28;19927;-83
2022/11/19 09:59:26;;;;;;;;;;;7.10;83.20;;;-151.14;100.00;62537.16;5072776;28;20115;-83
2022/11/19 10:01:54;;;;;;;;;;;7.10;83.20;;;-151.14;100.00;62537.16;5095218;28;19919;-82
2022/11/19 10:04:24;;;;;;;;;;;7.10;83.20;;;-151.14;100.00;62537.16;5112603;28;19919;-83
2022/11/19 10:06:58;;;;;;;;;;;7.10;83.30;;;-151.14;100.00;62537.16;5096122;28;19927;-83
2022/11/19 10:09:45;;;;;;;;;;;7.10;83.20;;;-151.14;100.00;62537.16;5096673;28;20230;-83
2022/11/19 10:12:19;;;;;;;;;;;7.10;83.20;;;-151.14;100.00;62537.16;5088117;28;19920;-83
2022/11/19 10:14:54;;;;;;;;;;;7.10;83.20;;;-151.14;100.00;62537.16;5058902;28;20234;-83
2022/11/19 10:17:28;;;;;;;;;;;7.10;83.20;;;-151.14;100.00;62537.16;5093030;28;20111;-83
2022/11/19 10:20:06;;;;;;;;;;;7.20;83.10;;;-151.14;100.00;62537.16;5109894;28;19927;-83
2022/11/19 10:22:37;;;;;;;;;;;7.20;83.10;;;-151.14;100.00;62537.16;5110102;28;19920;-83
2022/11/19 10:25:12;;;;;;;;;;;7.20;83.10;;;-151.14;100.00;62537.16;5092325;28;19926;-83
2022/11/19 10:27:42;;;;;;;;;;;7.20;83.10;;;-151.14;100.00;62537.16;5059510;28;19927;-83
2022/11/19 10:30:15;;;;;;;;;;;7.20;83.10;;;-151.14;100.00;62537.16;5093879;28;19927;-83
2022/11/19 10:32:44;;;;;;;;;;;7.20;83.10;;;-151.14;100.00;62537.16;5076230;28;20094;-83
2022/11/19 10:35:17;;;;;;;;;;;7.20;83.10;;;-151.14;100.00;62537.16;5093339;28;19920;-83
2022/11/19 10:37:49;;;;;;;;;;;7.20;83.10;;;-151.14;100.00;62537.16;5075914;28;19920;-82
2022/11/19 10:40:18;;;;;;;;;;;7.20;83.00;;;-151.14;100.00;62537.16;5092613;28;19920;-83
2022/11/19 10:42:47;;;;;;;;;;;7.20;83.00;;;-151.14;100.00;62537.16;5059088;28;19920;-83
2022/11/19 10:45:17;;;;;;;;;;;7.20;83.00;;;-151.14;100.00;62537.16;5058601;28;19920;-83
2022/11/19 10:47:47;;;;;;;;;;;7.20;82.90;;;-151.14;100.00;62537.16;5076034;28;19926;-83
2022/11/19 10:50:17;;;;;;;;;;;7.20;83.00;;;-151.14;100.00;62537.16;5075754;28;19942;-83
2022/11/19 10:52:46;;;;;;;;;;;7.20;83.00;;;-151.14;100.00;62537.16;5092532;28;19920;-83
2022/11/19 10:55:17;;;;;;;;;;;7.20;82.90;;;-151.14;100.00;62537.16;5091569;28;20321;-83
2022/11/19 10:57:46;;;;;;;;;;;7.20;82.90;;;-151.14;100.00;62537.16;5095810;28;19926;-83
2022/11/19 11:00:17;;;;;;;;;;;7.20;83.80;;;-151.14;100.00;62537.16;5078844;28;19942;-83
2022/11/19 11:02:45;;;;;;;;;;;7.20;82.90;;;-151.14;100.00;62537.16;5095721;28;19927;-83
2022/11/19 11:05:15;;;;;;;;;;;7.30;83.10;;;-151.14;100.00;62537.16;5112242;28;19927;-83
2022/11/19 11:07:51;;;;;;;;;;;7.30;83.00;;;-151.14;100.00;62537.16;5112701;28;19930;-83
2022/11/19 11:10:34;;;;;;;;;;;7.30;82.90;;;-151.14;100.00;62537.16;5095206;28;20115;-83
2022/11/19 11:16:07;;;;;;;;;;;7.30;82.90;;;-151.14;100.00;62537.16;5091232;28;19926;-83
2022/11/19 11:18:34;;;;;;;;;;;7.30;82.90;;;-151.14;100.00;62537.16;5091977;28;20116;-83
2022/11/19 11:21:02;;;;;;;;;;;7.30;82.90;;;-151.14;100.00;62537.16;5091714;28;19928;-82
2022/11/19 11:23:31;;;;;;;;;;;7.30;82.90;;;-151.14;100.00;62537.16;5081581;28;19920;-83
2022/11/19 11:26:04;;;;;;;;;;;7.30;82.90;;;-151.14;100.00;62537.16;5078314;28;19920;-83
2022/11/19 11:28:32;;;;;;;;;;;7.30;82.90;;;-151.14;100.00;62537.16;5095310;28;19920;-83
2022/11/19 11:31:01;;;;;;;;;;;7.30;82.90;;;-151.14;100.00;62537.16;5095187;28;19924;-83
2022/11/19 11:33:33;;;;;;;;;;;7.30;82.90;;;-151.14;100.00;62537.16;5094988;28;19920;-83
2022/11/19 11:36:03;;;;;;;;;;;7.30;82.90;;;-151.14;100.00;62537.16;5078203;28;19920;-83
2022/11/19 11:38:30;;;;;;;;;;;7.30;82.80;;;-151.14;100.00;62537.16;5107552;28;19920;-83